createdAt,value
2022-08-04T00:01:33.261Z,27.90
2022-08-04T00:04:11.423Z,27.90
2022-08-04T00:07:42.698Z,27.90
2022-08-04T00:10:16.605Z,27.90
2022-08-04T00:12:51.277Z,27.90
2022-08-04T00:15:19.813Z,27.90
2022-08-04T00:18:00.927Z,27.90
2022-08-04T00:20:34.107Z,27.90
2022-08-04T00:23:06.126Z,27.90
2022-08-04T00:25:33.873Z,27.90
2022-08-04T00:28:04.930Z,27.90
2022-08-04T00:30:32.869Z,27.80
2022-08-04T00:33:01.751Z,27.80
2022-08-04T00:36:50.421Z,27.80
2022-08-04T00:39:55.396Z,27.80
2022-08-04T00:42:58.179Z,27.80
2022-08-04T00:45:35.755Z,27.80
2022-08-04T00:49:02.020Z,27.80
2022-08-04T00:51:47.489Z,27.70
2022-08-04T00:55:11.269Z,27.70
2022-08-04T00:58:18.483Z,27.70
2022-08-04T01:01:06.786Z,27.60
2022-08-04T01:04:01.476Z,27.60
2022-08-04T01:06:56.414Z,27.60
2022-08-04T01:09:51.666Z,27.50
2022-08-04T01:13:01.677Z,27.50
2022-08-04T01:16:02.383Z,27.40
2022-08-04T01:19:01.767Z,27.40
2022-08-04T01:21:40.588Z,27.30
2022-08-04T01:24:46.353Z,27.40
2022-08-04T01:27:34.319Z,27.30
2022-08-04T01:30:05.631Z,27.30
2022-08-04T01:32:59.312Z,27.20
2022-08-04T01:35:49.400Z,27.20
2022-08-04T01:38:48.834Z,27.20
2022-08-04T01:41:19.681Z,27.20
2022-08-04T01:44:03.155Z,27.10
2022-08-04T01:46:36.460Z,27.10
2022-08-04T01:49:04.076Z,27.00
2022-08-04T01:51:36.111Z,27.00
2022-08-04T01:54:03.267Z,27.00
2022-08-04T01:56:31.606Z,27.00
2022-08-04T01:59:03.122Z,27.00
2022-08-04T02:01:37.222Z,27.00
2022-08-04T02:04:18.670Z,27.00
2022-08-04T02:07:05.618Z,27.00
2022-08-04T02:10:05.027Z,26.90
2022-08-04T02:13:13.542Z,26.90
2022-08-04T02:16:05.363Z,26.90
2022-08-04T02:18:45.299Z,26.80
2022-08-04T02:21:20.130Z,26.80
2022-08-04T02:23:54.122Z,26.70
2022-08-04T02:26:25.240Z,26.70
2022-08-04T02:29:17.236Z,26.70
2022-08-04T02:32:07.649Z,26.70
2022-08-04T02:35:25.401Z,26.70
2022-08-04T02:38:11.684Z,26.70
2022-08-04T02:40:41.943Z,26.60
2022-08-04T02:43:10.887Z,26.60
2022-08-04T02:45:42.717Z,26.60
2022-08-04T02:48:31.216Z,26.60
2022-08-04T02:51:01.240Z,26.50
2022-08-04T02:53:33.097Z,26.50
2022-08-04T02:56:02.660Z,26.50
2022-08-04T02:58:35.546Z,26.50
2022-08-04T03:01:04.439Z,26.50
2022-08-04T03:04:11.491Z,26.50
2022-08-04T03:07:20.142Z,26.50
2022-08-04T03:10:21.574Z,26.50
2022-08-04T03:13:39.965Z,26.50
2022-08-04T03:16:24.950Z,26.50
2022-08-04T03:19:12.836Z,26.40
2022-08-04T03:22:23.571Z,26.50
2022-08-04T03:25:22.483Z,26.40
2022-08-04T03:28:24.686Z,26.40
2022-08-04T03:31:31.846Z,26.40
2022-08-04T03:34:16.909Z,26.40
2022-08-04T03:37:17.202Z,26.40
2022-08-04T03:40:28.643Z,26.30
2022-08-04T03:43:57.851Z,26.30
2022-08-04T03:46:45.080Z,26.30
2022-08-04T03:49:33.330Z,26.20
2022-08-04T03:53:01.027Z,26.20
2022-08-04T03:55:56.224Z,26.20
2022-08-04T03:58:49.099Z,26.20
2022-08-04T04:02:06.408Z,26.10
2022-08-04T04:04:58.067Z,26.10
2022-08-04T04:07:41.692Z,26.10
2022-08-04T04:10:39.132Z,26.10
2022-08-04T04:13:41.213Z,26.10
2022-08-04T04:16:32.777Z,26.00
2022-08-04T04:19:05.571Z,26.00
2022-08-04T04:22:10.842Z,26.00
2022-08-04T04:25:07.757Z,26.00
2022-08-04T04:27:47.288Z,26.00
2022-08-04T04:30:44.917Z,26.00
2022-08-04T04:33:47.757Z,26.00
2022-08-04T04:36:46.745Z,26.10
2022-08-04T04:39:31.440Z,26.10
2022-08-04T04:42:25.653Z,26.10
2022-08-04T04:44:58.278Z,26.10
2022-08-04T04:48:07.437Z,26.10
2022-08-04T04:50:45.295Z,26.20
2022-08-04T04:54:02.580Z,26.20
2022-08-04T04:57:10.128Z,26.20
2022-08-04T05:00:02.076Z,26.20
2022-08-04T05:03:00.654Z,26.30
2022-08-04T05:06:14.376Z,26.30
2022-08-04T05:09:18.344Z,26.40
2022-08-04T05:14:38.057Z,26.40
2022-08-04T05:15:32.093Z,26.50
2022-08-04T05:18:03.115Z,26.60
2022-08-04T05:20:45.937Z,26.60
2022-08-04T05:23:26.941Z,26.70
2022-08-04T05:26:09.882Z,26.70
2022-08-04T05:28:56.316Z,26.70
2022-08-04T05:31:41.290Z,26.70
2022-08-04T05:34:15.997Z,26.80
2022-08-04T05:36:56.080Z,26.80
2022-08-04T05:39:33.780Z,26.90
2022-08-04T05:42:05.074Z,27.00
2022-08-04T05:44:37.783Z,27.00
2022-08-04T05:47:07.148Z,27.10
2022-08-04T05:49:35.775Z,27.10
2022-08-04T05:52:05.644Z,27.20
2022-08-04T05:54:38.999Z,27.20
2022-08-04T05:57:09.291Z,27.30
2022-08-04T05:59:43.084Z,27.40
2022-08-04T06:02:21.247Z,27.40
2022-08-04T06:04:52.450Z,27.50
2022-08-04T06:07:20.838Z,27.60
2022-08-04T06:09:51.435Z,27.60
2022-08-04T06:12:27.352Z,27.70
2022-08-04T06:14:59.540Z,27.80
2022-08-04T06:18:32.864Z,27.90
2022-08-04T06:20:31.082Z,28.00
2022-08-04T06:23:08.987Z,28.10
2022-08-04T06:25:46.025Z,28.30
2022-08-04T06:28:18.720Z,28.30
2022-08-04T06:30:50.266Z,28.40
2022-08-04T06:33:54.308Z,28.50
2022-08-04T06:36:21.618Z,28.60
2022-08-04T06:38:58.434Z,28.70
2022-08-04T06:41:29.688Z,28.80
2022-08-04T06:44:05.485Z,28.90
2022-08-04T06:46:38.128Z,29.00
2022-08-04T06:49:07.261Z,29.10
2022-08-04T06:51:45.229Z,29.20
2022-08-04T06:54:17.412Z,29.30
2022-08-04T06:56:46.470Z,29.40
2022-08-04T06:59:18.920Z,29.50
2022-08-04T07:01:49.294Z,29.60
2022-08-04T07:04:17.960Z,29.80
2022-08-04T07:06:45.555Z,30.00
2022-08-04T07:09:13.285Z,30.20
2022-08-04T07:11:44.244Z,30.40
2022-08-04T07:14:12.847Z,30.70
2022-08-04T07:16:45.824Z,31.00
2022-08-04T07:19:18.531Z,31.30
2022-08-04T07:22:16.824Z,31.70
2022-08-04T07:24:38.374Z,32.10
2022-08-04T07:27:08.957Z,32.50
2022-08-04T07:29:37.543Z,32.90
2022-08-04T07:32:11.486Z,33.20
2022-08-04T07:34:40.080Z,33.60
2022-08-04T07:37:10.178Z,34.00
2022-08-04T07:39:47.886Z,34.40
2022-08-04T07:42:20.648Z,34.70
2022-08-04T07:44:48.994Z,34.90
2022-08-04T07:47:16.868Z,35.20
2022-08-04T07:49:54.966Z,35.30
2022-08-04T07:52:27.194Z,35.50
2022-08-04T07:54:55.043Z,35.60
2022-08-04T07:57:40.022Z,35.60
2022-08-04T08:00:15.185Z,35.70
2022-08-04T08:02:51.636Z,35.80
2022-08-04T08:05:20.809Z,36.00
2022-08-04T08:07:54.284Z,36.10
2022-08-04T08:10:24.976Z,36.10
2022-08-04T08:12:53.925Z,36.20
2022-08-04T08:15:23.066Z,36.40
2022-08-04T08:17:58.560Z,36.50
2022-08-04T08:20:34.101Z,36.60
2022-08-04T08:23:03.572Z,36.70
2022-08-04T08:25:34.487Z,36.80
2022-08-04T08:28:07.424Z,36.90
2022-08-04T08:30:35.283Z,37.00
2022-08-04T08:33:07.518Z,37.00
2022-08-04T08:36:04.012Z,37.10
2022-08-04T08:38:46.203Z,37.10
2022-08-04T08:41:34.349Z,37.10
2022-08-04T08:44:56.052Z,37.10
2022-08-04T08:47:58.465Z,37.00
2022-08-04T08:51:27.319Z,37.00
2022-08-04T08:54:23.361Z,37.00
2022-08-04T08:57:43.895Z,37.10
2022-08-04T09:00:43.242Z,37.20
2022-08-04T09:03:48.028Z,37.40
2022-08-04T09:06:37.400Z,37.50
2022-08-04T09:09:47.825Z,37.60
2022-08-04T09:12:36.188Z,37.60
2022-08-04T09:15:23.857Z,37.60
2022-08-04T09:18:02.861Z,37.40
2022-08-04T09:21:10.150Z,37.30
2022-08-04T09:24:00.843Z,37.30
2022-08-04T09:27:01.083Z,37.10
2022-08-04T09:29:41.173Z,37.00
2022-08-04T09:32:50.235Z,37.00
2022-08-04T09:35:42.258Z,37.00
2022-08-04T09:38:42.308Z,37.00
2022-08-04T09:41:49.706Z,37.10
2022-08-04T09:45:00.078Z,37.30
2022-08-04T09:47:45.899Z,37.50
2022-08-04T09:50:39.184Z,37.70
2022-08-04T09:53:45.990Z,37.80
2022-08-04T09:56:33.578Z,38.00
2022-08-04T09:59:24.577Z,38.20
2022-08-04T10:01:59.959Z,38.40
2022-08-04T10:04:32.211Z,38.60
2022-08-04T10:07:42.647Z,38.70
2022-08-04T10:10:47.500Z,38.90
2022-08-04T10:13:55.566Z,39.00
2022-08-04T10:16:56.050Z,39.10
2022-08-04T10:19:36.966Z,39.20
2022-08-04T10:22:28.078Z,39.10
2022-08-04T10:26:03.225Z,39.00
2022-08-04T10:28:21.857Z,38.70
2022-08-04T10:31:10.079Z,38.50
2022-08-04T10:33:58.567Z,38.20
2022-08-04T10:36:39.683Z,38.00
2022-08-04T10:39:41.690Z,37.70
2022-08-04T10:42:29.965Z,37.50
2022-08-04T10:45:35.149Z,37.20
2022-08-04T10:48:47.873Z,36.90
2022-08-04T10:51:58.083Z,36.70
2022-08-04T10:56:07.141Z,36.50
2022-08-04T10:58:47.699Z,36.30
2022-08-04T11:02:00.164Z,36.10
2022-08-04T11:05:05.123Z,35.80
2022-08-04T11:07:37.059Z,35.60
2022-08-04T11:10:06.435Z,35.30
2022-08-04T11:12:35.838Z,35.00
2022-08-04T11:15:13.657Z,34.60
2022-08-04T11:17:53.430Z,34.30
2022-08-04T11:20:47.981Z,33.90
2022-08-04T11:23:18.117Z,33.60
2022-08-04T11:26:21.691Z,33.20
2022-08-04T11:29:21.000Z,32.90
2022-08-04T11:31:52.145Z,32.70
2022-08-04T11:34:25.888Z,32.50
2022-08-04T11:37:27.757Z,32.40
2022-08-04T11:40:27.959Z,32.30
2022-08-04T11:43:06.632Z,32.30
2022-08-04T11:45:56.741Z,32.40
2022-08-04T11:48:32.948Z,32.50
2022-08-04T11:51:06.703Z,32.60
2022-08-04T11:53:39.125Z,32.90
2022-08-04T11:56:13.596Z,33.00
2022-08-04T11:59:02.739Z,33.10
2022-08-04T12:02:09.790Z,33.30
2022-08-04T12:04:55.973Z,33.30
2022-08-04T12:08:13.226Z,33.30
2022-08-04T12:10:57.922Z,33.30
2022-08-04T12:13:32.390Z,33.30
2022-08-04T12:16:30.156Z,33.40
2022-08-04T12:19:15.782Z,33.50
2022-08-04T12:21:57.686Z,33.50
2022-08-04T12:24:36.670Z,33.60
2022-08-04T12:27:25.962Z,33.80
2022-08-04T12:31:00.157Z,34.00
2022-08-04T12:33:11.854Z,34.20
2022-08-04T12:36:21.012Z,34.40
2022-08-04T12:39:01.850Z,34.50
2022-08-04T12:41:39.833Z,34.70
2022-08-04T12:44:33.325Z,34.80
2022-08-04T12:47:27.776Z,35.10
2022-08-04T12:50:00.992Z,35.50
2022-08-04T12:55:34.899Z,36.10
2022-08-04T12:58:16.195Z,36.40
2022-08-04T13:02:07.488Z,36.60
2022-08-04T13:04:29.072Z,36.90
2022-08-04T13:07:19.449Z,37.20
2022-08-04T13:09:47.800Z,37.30
2022-08-04T13:12:24.885Z,37.40
2022-08-04T13:15:23.222Z,37.40
2022-08-04T13:18:14.868Z,37.40
2022-08-04T13:20:44.583Z,37.40
2022-08-04T13:23:21.793Z,37.40
2022-08-04T13:26:43.212Z,37.40
2022-08-04T13:28:48.461Z,37.40
2022-08-04T13:31:21.092Z,37.50
2022-08-04T13:33:55.390Z,37.70
2022-08-04T13:36:27.649Z,37.80
2022-08-04T13:39:03.351Z,38.00
2022-08-04T13:41:32.066Z,38.30
2022-08-04T13:44:17.631Z,38.50
2022-08-04T13:46:53.471Z,38.60
2022-08-04T13:49:42.942Z,38.60
2022-08-04T13:52:11.214Z,38.50
2022-08-04T13:54:48.685Z,38.30
2022-08-04T13:57:32.182Z,38.00
2022-08-04T14:00:09.374Z,37.80
2022-08-04T14:02:59.050Z,37.60
2022-08-04T14:05:35.355Z,37.40
2022-08-04T14:08:29.153Z,37.20
2022-08-04T14:10:59.886Z,36.80
2022-08-04T14:13:41.270Z,36.40
2022-08-04T14:16:21.490Z,36.00
2022-08-04T14:18:58.865Z,35.50
2022-08-04T14:21:26.402Z,35.20
2022-08-04T14:23:57.427Z,34.80
2022-08-04T14:26:31.580Z,34.50
2022-08-04T14:29:26.456Z,34.20
2022-08-04T14:32:04.454Z,33.90
2022-08-04T14:34:42.654Z,33.60
2022-08-04T14:37:20.520Z,33.30
2022-08-04T14:40:18.908Z,33.10
2022-08-04T14:42:54.272Z,33.00
2022-08-04T14:45:39.718Z,32.90
2022-08-04T14:48:23.318Z,32.80
2022-08-04T14:50:51.988Z,32.80
2022-08-04T14:53:31.735Z,32.80
2022-08-04T14:56:01.250Z,32.80
2022-08-04T14:58:38.421Z,32.80
2022-08-04T15:01:12.115Z,32.90
2022-08-04T15:03:50.796Z,33.00
2022-08-04T15:06:29.785Z,33.20
2022-08-04T15:09:04.453Z,33.30
2022-08-04T15:11:31.918Z,33.30
2022-08-04T15:13:59.942Z,33.30
2022-08-04T15:16:33.035Z,33.40
2022-08-04T15:19:02.028Z,33.50
2022-08-04T15:21:30.011Z,33.60
2022-08-04T15:24:00.851Z,33.70
2022-08-04T15:26:53.400Z,33.80
2022-08-04T15:30:00.555Z,33.90
2022-08-04T15:32:37.435Z,33.90
2022-08-04T15:35:20.960Z,33.80
2022-08-04T15:38:10.215Z,33.70
2022-08-04T15:40:57.238Z,33.60
2022-08-04T15:44:17.948Z,33.50
2022-08-04T15:46:49.831Z,33.40
2022-08-04T15:49:23.226Z,33.30
2022-08-04T15:52:18.527Z,33.30
2022-08-04T15:54:52.449Z,33.20
2022-08-04T15:58:00.834Z,33.20
2022-08-04T16:00:55.395Z,33.20
2022-08-04T16:03:57.811Z,33.20
2022-08-04T16:06:22.649Z,33.10
2022-08-04T16:09:45.340Z,33.10
2022-08-04T16:12:56.525Z,33.00
2022-08-04T16:15:50.769Z,32.90
2022-08-04T16:18:38.153Z,32.90
2022-08-04T16:21:18.230Z,32.90
2022-08-04T16:24:02.318Z,32.90
2022-08-04T16:26:56.858Z,32.90
2022-08-04T16:29:30.640Z,32.90
2022-08-04T16:32:13.578Z,33.00
2022-08-04T16:35:05.136Z,33.10
2022-08-04T16:37:38.831Z,33.10
2022-08-04T16:40:35.687Z,33.30
2022-08-04T16:43:15.845Z,33.40
2022-08-04T16:45:50.766Z,33.70
2022-08-04T16:48:38.738Z,34.00
2022-08-04T16:51:15.218Z,34.30
2022-08-04T16:53:53.899Z,34.50
2022-08-04T16:56:35.581Z,34.80
2022-08-04T16:59:09.744Z,34.90
2022-08-04T17:01:45.026Z,34.90
2022-08-04T17:04:13.063Z,34.80
2022-08-04T17:06:43.484Z,34.80
2022-08-04T17:09:19.806Z,34.60
2022-08-04T17:11:48.669Z,34.50
2022-08-04T17:14:27.164Z,34.50
2022-08-04T17:17:00.074Z,34.40
2022-08-04T17:19:27.776Z,34.30
2022-08-04T17:22:06.067Z,34.30
2022-08-04T17:24:38.387Z,34.10
2022-08-04T17:28:09.209Z,34.00
2022-08-04T17:29:56.881Z,33.90
2022-08-04T17:32:25.154Z,33.70
2022-08-04T17:34:57.709Z,33.60
2022-08-04T17:37:52.582Z,33.50
2022-08-04T17:40:22.548Z,33.40
2022-08-04T17:44:03.544Z,33.40
2022-08-04T17:46:30.295Z,33.30
2022-08-04T17:49:18.535Z,33.30
2022-08-04T17:55:02.783Z,32.90
2022-08-04T17:57:30.675Z,32.70
2022-08-04T18:00:00.467Z,32.50
2022-08-04T18:02:33.880Z,32.40
2022-08-04T18:05:11.851Z,32.20
2022-08-04T18:08:35.605Z,32.00
2022-08-04T18:10:57.449Z,31.80
2022-08-04T18:13:29.084Z,31.60
2022-08-04T18:16:14.591Z,31.50
2022-08-04T18:19:14.999Z,31.30
2022-08-04T18:25:53.073Z,31.10
2022-08-04T18:28:27.029Z,30.80
2022-08-04T18:30:56.106Z,30.70
2022-08-04T18:33:40.644Z,30.50
2022-08-04T18:36:34.731Z,30.40
2022-08-04T18:39:13.550Z,30.30
2022-08-04T18:42:01.870Z,30.20
2022-08-04T18:44:51.801Z,30.10
2022-08-04T18:47:23.930Z,30.00
2022-08-04T18:51:01.238Z,29.90
2022-08-04T18:53:05.585Z,29.80
2022-08-04T18:55:56.772Z,29.70
2022-08-04T18:58:27.971Z,29.60
2022-08-04T19:01:04.584Z,29.50
2022-08-04T19:04:04.243Z,29.50
2022-08-04T19:07:29.185Z,29.40
2022-08-04T19:09:58.044Z,29.30
2022-08-04T19:12:28.151Z,29.30
2022-08-04T19:15:10.858Z,29.30
2022-08-04T19:17:55.215Z,29.20
2022-08-04T19:20:31.415Z,29.20
2022-08-04T19:26:09.994Z,29.10
2022-08-04T19:28:47.363Z,29.00
2022-08-04T19:31:17.019Z,28.90
2022-08-04T19:33:58.794Z,28.80
2022-08-04T19:36:33.663Z,28.80
2022-08-04T19:39:09.302Z,28.70
2022-08-04T19:42:04.391Z,28.60
2022-08-04T19:44:30.184Z,28.50
2022-08-04T19:47:00.772Z,28.40
2022-08-04T19:50:03.687Z,28.30
2022-08-04T19:52:33.672Z,28.30
2022-08-04T19:55:10.123Z,28.10
2022-08-04T19:57:46.321Z,28.10
2022-08-04T20:00:34.152Z,28.00
2022-08-04T20:03:11.400Z,28.00
2022-08-04T20:06:38.400Z,27.90
2022-08-04T20:09:25.773Z,27.80
2022-08-04T20:11:53.017Z,27.80
2022-08-04T20:14:31.650Z,27.70
2022-08-04T20:17:02.312Z,27.60
2022-08-04T20:19:30.355Z,27.50
2022-08-04T20:21:58.699Z,27.50
2022-08-04T20:24:39.287Z,27.40
2022-08-04T20:27:15.145Z,27.40
2022-08-04T20:29:49.858Z,27.30
2022-08-04T20:32:22.148Z,27.30
2022-08-04T20:34:52.070Z,27.20
2022-08-04T20:37:24.939Z,27.20
2022-08-04T20:39:57.382Z,27.10
2022-08-04T20:42:27.860Z,27.10
2022-08-04T20:45:16.297Z,27.00
2022-08-04T20:47:53.364Z,27.00
2022-08-04T20:50:30.007Z,27.00
2022-08-04T20:52:58.554Z,26.90
2022-08-04T20:55:29.655Z,26.90
2022-08-04T20:58:02.488Z,26.80
2022-08-04T21:01:30.342Z,26.80
2022-08-04T21:07:10.020Z,26.80
2022-08-04T21:09:50.033Z,26.70
2022-08-04T21:12:27.208Z,26.70
2022-08-04T21:15:17.134Z,26.60
2022-08-04T21:17:58.590Z,26.60
2022-08-04T21:20:32.302Z,26.60
2022-08-04T21:23:02.068Z,26.50
2022-08-04T21:25:31.238Z,26.40
2022-08-04T21:28:04.074Z,26.40
2022-08-04T21:30:32.821Z,26.30
2022-08-04T21:33:07.551Z,26.20
2022-08-04T21:35:39.797Z,26.00
2022-08-04T21:38:16.292Z,25.80
2022-08-04T21:40:53.422Z,25.60
2022-08-04T21:46:09.734Z,25.00
2022-08-04T21:48:39.805Z,24.60
2022-08-04T21:51:59.056Z,24.30
2022-08-04T21:54:27.196Z,24.10
2022-08-04T21:56:54.340Z,23.80
2022-08-04T21:59:24.319Z,23.60
2022-08-04T22:02:00.196Z,23.40
2022-08-04T22:04:28.739Z,23.30
2022-08-04T22:06:55.855Z,23.10
2022-08-04T22:09:23.115Z,23.10
2022-08-04T22:11:51.982Z,23.00
2022-08-04T22:14:59.497Z,22.90
2022-08-04T22:17:35.222Z,22.80
2022-08-04T22:21:23.770Z,22.80
2022-08-04T22:23:51.759Z,22.70
2022-08-04T22:26:26.646Z,22.70
2022-08-04T22:28:57.152Z,22.60
2022-08-04T22:31:26.093Z,22.60
2022-08-04T22:34:13.420Z,22.60
2022-08-04T22:37:48.699Z,22.60
2022-08-04T22:40:44.125Z,22.60
2022-08-04T22:43:32.381Z,22.50
2022-08-04T22:46:06.492Z,22.50
2022-08-04T22:48:43.419Z,22.50
2022-08-04T22:51:12.921Z,22.50
2022-08-04T22:53:40.827Z,22.50
2022-08-04T22:56:10.696Z,22.50
2022-08-04T22:58:45.510Z,22.50
2022-08-04T23:01:19.664Z,22.50
2022-08-04T23:03:50.988Z,22.40
2022-08-04T23:06:25.593Z,22.40
2022-08-04T23:08:57.607Z,22.40
2022-08-04T23:11:24.789Z,22.40
2022-08-04T23:14:02.809Z,22.40
2022-08-04T23:16:30.421Z,22.30
2022-08-04T23:18:57.482Z,22.30
2022-08-04T23:21:24.976Z,22.30
2022-08-04T23:24:00.848Z,22.30
2022-08-04T23:26:31.747Z,22.20
2022-08-04T23:28:59.562Z,22.20
2022-08-04T23:31:48.258Z,22.20
2022-08-04T23:34:18.797Z,22.20
2022-08-04T23:36:47.413Z,22.10
2022-08-04T23:39:14.813Z,22.10
2022-08-04T23:42:21.267Z,22.10
2022-08-04T23:48:54.966Z,22.10
2022-08-04T23:51:26.866Z,22.00
2022-08-04T23:54:03.691Z,22.00
2022-08-04T23:56:34.345Z,21.90
2022-08-04T23:59:03.850Z,21.90
